Time;durP1;ratioP1;P1;durP2;ratioP2;P2;SDS_P1;SDS_P2;PMS_P1;PMS_P2;Temp;Humidity;BMP_temperature;BMP_pressure;BME280_temperature;BME280_humidity;BME280_pressure;Samples;Min_cycle;Max_cycle;Signal;HPM_P1;HPM_P2
2021/01/21 00:00:17;;;;;;;0.20;0.20;;;;;;;;;;4998193;28;20280;-76
2021/01/21 00:02:42;;;;;;;0.20;0.20;;;;;;;;;;4980792;28;20268;-76
2021/01/21 00:05:08;;;;;;;0.30;0.30;;;;;;;;;;4980210;28;20791;-76
2021/01/21 00:07:33;;;;;;;0.30;0.30;;;;;;;;;;5014064;28;20348;-77
2021/01/21 00:09:59;;;;;;;0.20;0.20;;;;;;;;;;5013916;28;20471;-76
2021/01/21 00:12:24;;;;;;;0.22;0.22;;;;;;;;;;4996638;28;20033;-76
2021/01/21 00:14:50;;;;;;;0.30;0.30;;;;;;;;;;4980110;28;20030;-76
2021/01/21 00:17:15;;;;;;;0.25;0.25;;;;;;;;;;4996417;28;20057;-76
2021/01/21 00:19:40;;;;;;;0.20;0.20;;;;;;;;;;4996319;28;20088;-76
2021/01/21 00:22:06;;;;;;;0.30;0.30;;;;;;;;;;4995883;28;20783;-75
2021/01/21 00:24:32;;;;;;;0.20;0.20;;;;;;;;;;5014141;28;20405;-76
2021/01/21 00:26:57;;;;;;;0.30;0.30;;;;;;;;;;5012914;28;20058;-75
2021/01/21 00:29:23;;;;;;;0.20;0.20;;;;;;;;;;5013405;28;20471;-76
2021/01/21 00:31:48;;;;;;;0.30;0.30;;;;;;;;;;4976697;28;20331;-75
2021/01/21 01:53:28;;;;;;;0.28;0.28;;;;;;;;;;4998713;28;20064;-78
2021/01/21 01:55:53;;;;;;;0.20;0.20;;;;;;;;;;5018018;28;20045;-76
2021/01/21 01:58:19;;;;;;;0.20;0.20;;;;;;;;;;4993426;28;20053;-74
2021/01/21 02:00:44;;;;;;;0.20;0.20;;;;;;;;;;4996907;28;20459;-74
2021/01/21 02:03:10;;;;;;;0.20;0.20;;;;;;;;;;4980127;28;20324;-75
2021/01/21 02:05:35;;;;;;;0.20;0.20;;;;;;;;;;4979302;28;20022;-74
2021/01/21 02:08:00;;;;;;;0.20;0.20;;;;;;;;;;4993825;28;20026;-75
2021/01/21 02:10:25;;;;;;;0.20;0.20;;;;;;;;;;4995130;28;20268;-76
2021/01/21 02:12:54;;;;;;;0.20;0.20;;;;;;;;;;4998244;28;20818;-76
2021/01/21 02:15:37;;;;;;;0.20;0.20;;;;;;;;;;5015390;28;20268;-76
2021/01/21 02:18:02;;;;;;;0.20;0.20;;;;;;;;;;4998738;28;20041;-76
2021/01/21 02:20:47;;;;;;;0.20;0.20;;;;;;;;;;5016030;28;20049;-75
2021/01/21 02:23:32;;;;;;;0.20;0.20;;;;;;;;;;4998683;28;20429;-75
2021/01/21 02:26:04;;;;;;;0.20;0.20;;;;;;;;;;5016148;28;20057;-76
2021/01/21 02:28:34;;;;;;;0.20;0.20;;;;;;;;;;4981793;28;20109;-75
2021/01/21 02:31:03;;;;;;;0.20;0.20;;;;;;;;;;4998667;28;20092;-76
2021/01/21 02:33:43;;;;;;;0.20;0.20;;;;;;;;;;4997825;28;20018;-75
2021/01/21 02:36:10;;;;;;;0.20;0.20;;;;;;;;;;4998018;28;20427;-76
2021/01/21 02:38:35;;;;;;;0.20;0.20;;;;;;;;;;4981744;28;20025;-76
2021/01/21 02:41:01;;;;;;;0.20;0.20;;;;;;;;;;4997848;28;20026;-75
2021/01/21 02:43:26;;;;;;;0.30;0.30;;;;;;;;;;5015257;28;20038;-75
2021/01/21 02:45:51;;;;;;;0.20;0.20;;;;;;;;;;4997890;28;20084;-75
2021/01/21 02:48:17;;;;;;;0.20;0.20;;;;;;;;;;4997828;28;20417;-76
2021/01/21 02:50:42;;;;;;;0.20;0.20;;;;;;;;;;4997833;28;20026;-75
2021/01/21 02:53:07;;;;;;;0.20;0.20;;;;;;;;;;5001028;28;20054;-75
2021/01/21 02:55:53;;;;;;;0.20;0.20;;;;;;;;;;4994724;28;20313;-76
2021/01/21 02:58:32;;;;;;;0.30;0.30;;;;;;;;;;4994534;28;20475;-75
2021/01/21 03:00:58;;;;;;;0.20;0.20;;;;;;;;;;4994034;28;20034;-75
2021/01/21 03:03:23;;;;;;;0.20;0.20;;;;;;;;;;4997685;28;20075;-75
2021/01/21 03:05:50;;;;;;;0.20;0.20;;;;;;;;;;4994078;28;20022;-76
2021/01/21 03:08:15;;;;;;;0.20;0.20;;;;;;;;;;4978039;28;20034;-75
2021/01/21 03:10:40;;;;;;;0.20;0.20;;;;;;;;;;4981002;28;20030;-75
2021/01/21 03:13:07;;;;;;;0.20;0.20;;;;;;;;;;4990144;28;20780;-76
2021/01/21 03:15:32;;;;;;;0.20;0.20;;;;;;;;;;4981022;28;20280;-76
2021/01/21 03:17:57;;;;;;;0.20;0.20;;;;;;;;;;4997350;28;20021;-76
2021/01/21 03:20:22;;;;;;;0.20;0.20;;;;;;;;;;4997238;28;20034;-76
2021/01/21 03:22:48;;;;;;;0.20;0.20;;;;;;;;;;4997360;28;20347;-76
2021/01/21 03:25:14;;;;;;;0.20;0.20;;;;;;;;;;5015115;28;20461;-76
2021/01/21 03:27:40;;;;;;;0.20;0.20;;;;;;;;;;4997217;28;20104;-76
2021/01/21 03:30:05;;;;;;;0.20;0.20;;;;;;;;;;5014649;28;20371;-76
2021/01/21 03:32:31;;;;;;;0.20;0.20;;;;;;;;;;4997165;28;20094;-76
2021/01/21 03:34:56;;;;;;;0.20;0.20;;;;;;;;;;4996828;28;20021;-76
2021/01/21 03:37:22;;;;;;;0.20;0.20;;;;;;;;;;4997171;28;20264;-76
2021/01/21 03:39:47;;;;;;;0.20;0.20;;;;;;;;;;4972558;28;20046;-76
2021/01/21 03:42:12;;;;;;;0.20;0.20;;;;;;;;;;4987693;28;20489;-77
2021/01/21 03:44:38;;;;;;;0.20;0.20;;;;;;;;;;4996747;28;20264;-76
2021/01/21 03:47:04;;;;;;;0.20;0.20;;;;;;;;;;4997110;28;20025;-76
2021/01/21 03:49:29;;;;;;;0.20;0.20;;;;;;;;;;4996509;28;20153;-76
2021/01/21 03:51:55;;;;;;;0.20;0.20;;;;;;;;;;4996357;28;20097;-76
2021/01/21 03:54:20;;;;;;;0.20;0.20;;;;;;;;;;4976582;28;20473;-76
2021/01/21 03:56:46;;;;;;;0.20;0.20;;;;;;;;;;4994510;28;20265;-76
2021/01/21 03:59:11;;;;;;;0.20;0.20;;;;;;;;;;4993433;28;20068;-77
2021/01/21 04:01:36;;;;;;;0.20;0.20;;;;;;;;;;4973284;28;20499;-76
2021/01/21 04:04:02;;;;;;;0.20;0.20;;;;;;;;;;4989577;28;20023;-76
2021/01/21 04:06:27;;;;;;;0.20;0.20;;;;;;;;;;4992257;28;20250;-76
2021/01/21 04:08:52;;;;;;;0.13;0.13;;;;;;;;;;4992693;28;20027;-76
2021/01/21 04:11:18;;;;;;;0.20;0.20;;;;;;;;;;4978468;28;20058;-76
2021/01/21 04:13:43;;;;;;;0.20;0.20;;;;;;;;;;4971675;28;20278;-76
2021/01/21 04:16:08;;;;;;;0.20;0.20;;;;;;;;;;4974941;28;20386;-76
2021/01/21 04:18:34;;;;;;;0.20;0.20;;;;;;;;;;4973518;28;20018;-77
2021/01/21 04:21:00;;;;;;;0.20;0.20;;;;;;;;;;4976154;28;20054;-76
2021/01/21 04:23:25;;;;;;;0.20;0.20;;;;;;;;;;4993997;28;20089;-77
2021/01/21 04:25:50;;;;;;;0.10;0.10;;;;;;;;;;4994025;28;20084;-77
2021/01/21 04:28:16;;;;;;;0.10;0.10;;;;;;;;;;4994103;28;20022;-77
2021/01/21 04:30:42;;;;;;;0.20;0.20;;;;;;;;;;4976548;28;20034;-77
2021/01/21 04:33:07;;;;;;;0.20;0.20;;;;;;;;;;4992450;28;20104;-76
2021/01/21 04:35:32;;;;;;;0.10;0.10;;;;;;;;;;4976632;28;20043;-77
2021/01/21 04:37:58;;;;;;;0.20;0.20;;;;;;;;;;4992747;28;21025;-77
2021/01/21 04:40:26;;;;;;;0.20;0.20;;;;;;;;;;4992356;28;20722;-76
2021/01/21 04:42:52;;;;;;;0.10;0.10;;;;;;;;;;4992023;28;20014;-76
2021/01/21 04:45:18;;;;;;;0.20;0.20;;;;;;;;;;4992224;28;20032;-76
2021/01/21 04:47:44;;;;;;;0.10;0.10;;;;;;;;;;4992637;28;20388;-76
2021/01/21 04:50:10;;;;;;;0.10;0.10;;;;;;;;;;4992790;28;20026;-77
2021/01/21 04:52:37;;;;;;;0.10;0.10;;;;;;;;;;4994299;28;20022;-77
2021/01/21 04:55:04;;;;;;;0.10;0.10;;;;;;;;;;4976126;28;20081;-76
2021/01/21 04:57:43;;;;;;;0.10;0.10;;;;;;;;;;4991982;28;20026;-77
2021/01/21 05:00:09;;;;;;;0.10;0.10;;;;;;;;;;4995228;28;20052;-77
2021/01/21 05:02:34;;;;;;;0.20;0.20;;;;;;;;;;5013057;28;20868;-77
2021/01/21 05:04:59;;;;;;;0.10;0.10;;;;;;;;;;4995531;28;20030;-77
2021/01/21 05:07:25;;;;;;;0.20;0.20;;;;;;;;;;5013158;28;20477;-76
2021/01/21 05:09:50;;;;;;;0.13;0.13;;;;;;;;;;4995229;28;20120;-76
2021/01/21 05:12:16;;;;;;;0.10;0.10;;;;;;;;;;4980715;28;20068;-77
2021/01/21 05:14:42;;;;;;;0.10;0.10;;;;;;;;;;4986143;28;20037;-77
2021/01/21 05:17:07;;;;;;;0.10;0.10;;;;;;;;;;4995649;28;20018;-77
2021/01/21 05:19:32;;;;;;;0.10;0.10;;;;;;;;;;4995471;28;20492;-77
2021/01/21 05:21:59;;;;;;;0.10;0.10;;;;;;;;;;4995508;28;20260;-77
2021/01/21 05:24:24;;;;;;;0.20;0.20;;;;;;;;;;4995571;28;20021;-76
2021/01/21 05:26:50;;;;;;;0.10;0.10;;;;;;;;;;4995533;28;20466;-77
2021/01/21 05:29:16;;;;;;;0.10;0.10;;;;;;;;;;4995063;28;20022;-77
2021/01/21 05:31:41;;;;;;;0.20;0.20;;;;;;;;;;4969480;28;20034;-77
2021/01/21 05:34:08;;;;;;;0.20;0.20;;;;;;;;;;4976082;28;20457;-77
2021/01/21 05:36:39;;;;;;;0.10;0.10;;;;;;;;;;4975655;28;20113;-76
2021/01/21 05:39:05;;;;;;;0.13;0.13;;;;;;;;;;4976915;28;20041;-76
2021/01/21 05:41:30;;;;;;;0.10;0.10;;;;;;;;;;4972123;28;20113;-76
2021/01/21 05:43:55;;;;;;;0.10;0.10;;;;;;;;;;4992099;28;20026;-76
2021/01/21 05:46:21;;;;;;;0.10;0.10;;;;;;;;;;4995565;28;20587;-76
2021/01/21 05:48:47;;;;;;;0.10;0.10;;;;;;;;;;4995250;28;20495;-76
2021/01/21 05:51:12;;;;;;;0.10;0.10;;;;;;;;;;5012932;28;20030;-76
2021/01/21 05:53:39;;;;;;;0.20;0.20;;;;;;;;;;4971924;28;20066;-76
2021/01/21 05:56:07;;;;;;;0.15;0.15;;;;;;;;;;4968919;28;20055;-76
2021/01/21 05:58:32;;;;;;;0.20;0.20;;;;;;;;;;4960347;28;20022;-76
2021/01/21 06:00:58;;;;;;;0.10;0.10;;;;;;;;;;4956264;28;20023;-76
2021/01/21 06:03:24;;;;;;;0.20;0.20;;;;;;;;;;4973918;28;20403;-76
2021/01/21 06:05:50;;;;;;;0.10;0.10;;;;;;;;;;4972800;28;20015;-76
2021/01/21 06:08:15;;;;;;;0.10;0.10;;;;;;;;;;4956517;29;20037;-76
2021/01/21 06:10:41;;;;;;;0.20;0.20;;;;;;;;;;4975150;28;20113;-76
2021/01/21 06:13:06;;;;;;;0.20;0.20;;;;;;;;;;4959617;28;20023;-77
2021/01/21 06:15:32;;;;;;;0.10;0.10;;;;;;;;;;4976667;28;20491;-77
2021/01/21 06:17:57;;;;;;;0.20;0.20;;;;;;;;;;4975647;28;20034;-76
2021/01/21 06:20:23;;;;;;;0.20;0.20;;;;;;;;;;4975680;28;20027;-76
2021/01/21 06:22:48;;;;;;;0.20;0.20;;;;;;;;;;4974320;28;20055;-77
2021/01/21 06:25:14;;;;;;;0.10;0.10;;;;;;;;;;4953733;28;20532;-77
2021/01/21 06:27:41;;;;;;;0.10;0.10;;;;;;;;;;4973657;28;20464;-76
2021/01/21 06:30:08;;;;;;;0.10;0.10;;;;;;;;;;4976587;28;20031;-77
2021/01/21 06:32:34;;;;;;;0.10;0.10;;;;;;;;;;4959133;28;20027;-76
2021/01/21 06:35:02;;;;;;;0.10;0.10;;;;;;;;;;4975413;28;20030;-76
2021/01/21 06:37:27;;;;;;;0.20;0.20;;;;;;;;;;4955897;28;20042;-77
2021/01/21 06:39:53;;;;;;;0.10;0.10;;;;;;;;;;4944287;29;20028;-77
2021/01/21 06:42:32;;;;;;;0.10;0.10;;;;;;;;;;4972032;28;20023;-77
2021/01/21 06:44:58;;;;;;;0.10;0.10;;;;;;;;;;4975194;28;20070;-77
2021/01/21 06:47:23;;;;;;;0.10;0.10;;;;;;;;;;4975131;28;20042;-76
2021/01/21 06:49:49;;;;;;;0.20;0.20;;;;;;;;;;4958180;28;20034;-76
2021/01/21 06:52:14;;;;;;;0.13;0.13;;;;;;;;;;4958925;28;20278;-76
2021/01/21 06:54:40;;;;;;;0.10;0.10;;;;;;;;;;4980882;28;20121;-76
2021/01/21 06:57:29;;;;;;;0.13;0.13;;;;;;;;;;4994377;28;20034;-77
2021/01/21 06:59:54;;;;;;;0.20;0.20;;;;;;;;;;4974953;28;20030;-76
2021/01/21 07:02:38;;;;;;;0.20;0.20;;;;;;;;;;4987308;28;20403;-77
2021/01/21 07:05:10;;;;;;;0.20;0.20;;;;;;;;;;4994363;28;20467;-77
2021/01/21 07:08:01;;;;;;;0.10;0.10;;;;;;;;;;4960485;28;20019;-77
2021/01/21 07:10:29;;;;;;;0.20;0.20;;;;;;;;;;4986733;28;20029;-77
2021/01/21 07:12:54;;;;;;;0.20;0.20;;;;;;;;;;4995168;28;20473;-77
2021/01/21 07:15:28;;;;;;;0.20;0.20;;;;;;;;;;4969099;28;20033;-77
2021/01/21 07:17:53;;;;;;;0.10;0.10;;;;;;;;;;4993097;28;20419;-76
2021/01/21 07:20:18;;;;;;;0.10;0.10;;;;;;;;;;4993756;28;20034;-76
2021/01/21 07:22:43;;;;;;;0.10;0.10;;;;;;;;;;4993882;28;20289;-76
2021/01/21 07:25:09;;;;;;;0.10;0.10;;;;;;;;;;4993512;28;20047;-76
2021/01/21 07:27:34;;;;;;;0.10;0.10;;;;;;;;;;4993574;28;20427;-76
2021/01/21 07:30:19;;;;;;;0.10;0.10;;;;;;;;;;4973155;28;20035;-76
2021/01/21 07:32:44;;;;;;;0.20;0.20;;;;;;;;;;4990395;28;20468;-76
2021/01/21 07:35:28;;;;;;;0.20;0.20;;;;;;;;;;4972815;28;20030;-77
2021/01/21 07:37:53;;;;;;;0.10;0.10;;;;;;;;;;4991943;28;20026;-76
2021/01/21 07:40:19;;;;;;;0.10;0.10;;;;;;;;;;4993140;28;20511;-76
2021/01/21 07:42:44;;;;;;;0.20;0.20;;;;;;;;;;4993024;28;20076;-76
2021/01/21 07:45:14;;;;;;;0.10;0.10;;;;;;;;;;4993809;28;20308;-77
2021/01/21 07:47:40;;;;;;;0.10;0.10;;;;;;;;;;4977501;28;20463;-76
2021/01/21 07:50:14;;;;;;;0.17;0.17;;;;;;;;;;4976427;28;20026;-76
2021/01/21 07:52:43;;;;;;;0.10;0.10;;;;;;;;;;4993467;28;20030;-75
2021/01/21 07:55:08;;;;;;;0.20;0.20;;;;;;;;;;4987229;28;20441;-75
2021/01/21 07:57:36;;;;;;;0.10;0.10;;;;;;;;;;4977998;28;20018;-75
2021/01/21 08:00:05;;;;;;;0.20;0.20;;;;;;;;;;4994371;28;20285;-75
2021/01/21 08:02:43;;;;;;;0.10;0.10;;;;;;;;;;4994624;28;20014;-75
2021/01/21 08:05:09;;;;;;;0.10;0.10;;;;;;;;;;4994567;28;20109;-75
2021/01/21 08:07:50;;;;;;;0.10;0.10;;;;;;;;;;4977147;28;20112;-75
2021/01/21 08:10:15;;;;;;;0.10;0.10;;;;;;;;;;4972266;28;20386;-74
2021/01/21 08:12:40;;;;;;;0.20;0.20;;;;;;;;;;4994892;28;20117;-74
2021/01/21 08:15:06;;;;;;;0.10;0.10;;;;;;;;;;4995339;28;20026;-74
2021/01/21 08:17:31;;;;;;;0.10;0.10;;;;;;;;;;4996629;28;20028;-73
2021/01/21 08:19:57;;;;;;;0.10;0.10;;;;;;;;;;4979594;28;20030;-73
2021/01/21 08:22:22;;;;;;;0.10;0.10;;;;;;;;;;4995550;28;20026;-73
2021/01/21 08:24:57;;;;;;;0.10;0.10;;;;;;;;;;5013414;28;20018;-73
2021/01/21 08:27:24;;;;;;;0.20;0.20;;;;;;;;;;4995537;28;20828;-73
2021/01/21 08:29:50;;;;;;;0.20;0.20;;;;;;;;;;5013248;28;20026;-73
2021/01/21 08:32:15;;;;;;;0.10;0.10;;;;;;;;;;4979682;28;20033;-73
2021/01/21 08:34:40;;;;;;;0.10;0.10;;;;;;;;;;4996639;28;20034;-74
2021/01/21 08:37:05;;;;;;;0.10;0.10;;;;;;;;;;4996107;28;20022;-72
2021/01/21 08:39:31;;;;;;;0.10;0.10;;;;;;;;;;4993992;28;20272;-72
2021/01/21 08:41:56;;;;;;;0.10;0.10;;;;;;;;;;4982026;28;20033;-72
2021/01/21 08:44:22;;;;;;;0.10;0.10;;;;;;;;;;4996425;28;20022;-72
2021/01/21 08:46:57;;;;;;;0.10;0.10;;;;;;;;;;4979265;28;20022;-72
2021/01/21 08:49:22;;;;;;;0.20;0.20;;;;;;;;;;5011674;28;20053;-72
2021/01/21 08:51:48;;;;;;;0.10;0.10;;;;;;;;;;5011225;28;20509;-72
2021/01/21 08:54:17;;;;;;;0.10;0.10;;;;;;;;;;4992187;28;20042;-71
2021/01/21 08:56:42;;;;;;;0.10;0.10;;;;;;;;;;4991789;28;20371;-71
2021/01/21 08:59:26;;;;;;;0.10;0.10;;;;;;;;;;4993303;28;20018;-71
2021/01/21 09:01:52;;;;;;;0.10;0.10;;;;;;;;;;4991845;28;20357;-71
2021/01/21 09:04:27;;;;;;;0.10;0.10;;;;;;;;;;4989432;28;20157;-71
2021/01/21 09:06:55;;;;;;;0.10;0.10;;;;;;;;;;4956667;28;20376;-71
2021/01/21 09:09:27;;;;;;;0.10;0.10;;;;;;;;;;4991682;28;20037;-72
2021/01/21 09:11:52;;;;;;;0.10;0.10;;;;;;;;;;4960258;28;20049;-72
2021/01/21 09:14:23;;;;;;;0.10;0.10;;;;;;;;;;4987689;28;20468;-73
2021/01/21 09:16:55;;;;;;;0.10;0.10;;;;;;;;;;4992390;28;20105;-72
2021/01/21 09:19:26;;;;;;;0.10;0.10;;;;;;;;;;4968643;28;20027;-73
2021/01/21 09:21:58;;;;;;;0.10;0.10;;;;;;;;;;4987721;28;20015;-72
2021/01/21 09:24:24;;;;;;;0.10;0.10;;;;;;;;;;4991973;28;20026;-73
2021/01/21 09:27:24;;;;;;;0.10;0.10;;;;;;;;;;4992252;28;20019;-72
2021/01/21 09:29:51;;;;;;;0.10;0.10;;;;;;;;;;4971704;28;20019;-73
2021/01/21 09:32:17;;;;;;;0.10;0.10;;;;;;;;;;4967434;28;20058;-71
2021/01/21 09:34:55;;;;;;;0.10;0.10;;;;;;;;;;4975857;28;20022;-72
2021/01/21 09:37:20;;;;;;;0.10;0.10;;;;;;;;;;4986008;28;20031;-71
2021/01/21 09:39:46;;;;;;;0.10;0.10;;;;;;;;;;4970803;28;20519;-73
2021/01/21 09:42:11;;;;;;;0.10;0.10;;;;;;;;;;4994667;28;20018;-73
2021/01/21 09:44:36;;;;;;;0.13;0.13;;;;;;;;;;4994802;28;20046;-73
2021/01/21 09:47:02;;;;;;;0.15;0.15;;;;;;;;;;4995065;28;20014;-72
2021/01/21 09:49:27;;;;;;;0.10;0.10;;;;;;;;;;4997369;28;20049;-73
2021/01/21 09:51:52;;;;;;;0.10;0.10;;;;;;;;;;4981775;28;20156;-72
2021/01/21 09:54:19;;;;;;;0.13;0.13;;;;;;;;;;4996901;28;20042;-72
2021/01/21 09:56:45;;;;;;;0.10;0.10;;;;;;;;;;4996689;28;20277;-72
2021/01/21 09:59:11;;;;;;;0.10;0.10;;;;;;;;;;4996657;28;20038;-72
2021/01/21 10:01:36;;;;;;;0.10;0.10;;;;;;;;;;4989408;28;20054;-72
2021/01/21 10:04:01;;;;;;;0.20;0.20;;;;;;;;;;4994898;28;20424;-72
2021/01/21 10:06:27;;;;;;;0.20;0.20;;;;;;;;;;4995466;28;20280;-72
2021/01/21 10:08:52;;;;;;;0.20;0.20;;;;;;;;;;4995786;28;20407;-72
2021/01/21 10:11:17;;;;;;;0.10;0.10;;;;;;;;;;4994685;28;20536;-72
2021/01/21 10:13:43;;;;;;;0.10;0.10;;;;;;;;;;4994970;28;20030;-72
2021/01/21 10:16:08;;;;;;;0.17;0.17;;;;;;;;;;4978507;28;20448;-72
2021/01/21 10:18:33;;;;;;;0.20;0.20;;;;;;;;;;4994781;28;20269;-72
2021/01/21 10:20:58;;;;;;;0.10;0.10;;;;;;;;;;4995799;28;20361;-72
2021/01/21 10:23:24;;;;;;;0.10;0.10;;;;;;;;;;4978041;28;20391;-72
2021/01/21 10:25:50;;;;;;;0.15;0.15;;;;;;;;;;4996300;28;20022;-72
2021/01/21 10:28:15;;;;;;;0.20;0.20;;;;;;;;;;4979030;28;20022;-72
2021/01/21 10:30:41;;;;;;;0.15;0.15;;;;;;;;;;4978220;28;20105;-72
2021/01/21 10:33:06;;;;;;;0.20;0.20;;;;;;;;;;4995950;28;20344;-72
2021/01/21 10:35:31;;;;;;;0.20;0.20;;;;;;;;;;4995127;28;20021;-72
2021/01/21 10:37:57;;;;;;;0.20;0.20;;;;;;;;;;4977765;28;20030;-72
2021/01/21 10:40:22;;;;;;;0.10;0.10;;;;;;;;;;4984463;28;20023;-72
2021/01/21 10:42:47;;;;;;;0.20;0.20;;;;;;;;;;4995401;28;20026;-72
2021/01/21 10:45:13;;;;;;;0.10;0.10;;;;;;;;;;4994487;28;20064;-72
2021/01/21 10:47:38;;;;;;;0.10;0.10;;;;;;;;;;4993749;28;20108;-72
2021/01/21 10:50:04;;;;;;;0.10;0.10;;;;;;;;;;4995548;28;20105;-72
2021/01/21 10:52:29;;;;;;;0.10;0.10;;;;;;;;;;4996144;28;20026;-72
2021/01/21 10:54:54;;;;;;;0.20;0.20;;;;;;;;;;4976654;28;20026;-72
2021/01/21 10:57:21;;;;;;;0.10;0.10;;;;;;;;;;4997659;28;20466;-71
2021/01/21 10:59:46;;;;;;;0.10;0.10;;;;;;;;;;5011246;28;20030;-71
2021/01/21 11:02:12;;;;;;;0.10;0.10;;;;;;;;;;4981301;28;20121;-72
2021/01/21 11:04:37;;;;;;;0.20;0.20;;;;;;;;;;5014954;28;20331;-71
2021/01/21 11:07:02;;;;;;;0.10;0.10;;;;;;;;;;4997552;28;20018;-72
2021/01/21 11:09:37;;;;;;;0.10;0.10;;;;;;;;;;4993652;28;20273;-72
2021/01/21 11:12:03;;;;;;;0.10;0.10;;;;;;;;;;4998866;28;20056;-72
2021/01/21 11:14:28;;;;;;;0.10;0.10;;;;;;;;;;4992651;28;20021;-72
2021/01/21 11:16:53;;;;;;;0.10;0.10;;;;;;;;;;4981086;28;20546;-72
2021/01/21 11:19:18;;;;;;;0.10;0.10;;;;;;;;;;4997223;28;20032;-72
2021/01/21 11:21:44;;;;;;;0.10;0.10;;;;;;;;;;4973301;28;20296;-72
2021/01/21 11:24:09;;;;;;;0.10;0.10;;;;;;;;;;5015081;28;20411;-72
2021/01/21 11:26:34;;;;;;;0.10;0.10;;;;;;;;;;5015179;28;20053;-72
2021/01/21 11:29:00;;;;;;;0.20;0.20;;;;;;;;;;5001653;28;20973;-73
2021/01/21 11:31:25;;;;;;;0.10;0.10;;;;;;;;;;4997101;28;20268;-72
2021/01/21 11:33:50;;;;;;;0.10;0.10;;;;;;;;;;5014937;28;20068;-72
2021/01/21 11:36:16;;;;;;;0.20;0.20;;;;;;;;;;4995812;28;20523;-72
2021/01/21 11:38:41;;;;;;;0.10;0.10;;;;;;;;;;4982387;28;20273;-72
2021/01/21 11:41:06;;;;;;;0.10;0.10;;;;;;;;;;4987212;28;20478;-73
2021/01/21 11:43:31;;;;;;;0.17;0.17;;;;;;;;;;4996898;28;20482;-71
2021/01/21 11:45:56;;;;;;;0.10;0.10;;;;;;;;;;4986701;28;20015;-78
2021/01/21 11:48:22;;;;;;;0.10;0.10;;;;;;;;;;4993914;28;20074;-79
2021/01/21 11:50:48;;;;;;;0.10;0.10;;;;;;;;;;5012133;28;20021;-79
2021/01/21 11:53:13;;;;;;;0.20;0.20;;;;;;;;;;5008439;28;20141;-78
2021/01/21 11:55:39;;;;;;;0.20;0.20;;;;;;;;;;5005762;28;20046;-78
2021/01/21 11:58:04;;;;;;;0.15;0.15;;;;;;;;;;5002308;28;20789;-78
2021/01/21 12:00:29;;;;;;;0.10;0.10;;;;;;;;;;4988332;28;20026;-78
2021/01/21 12:02:55;;;;;;;0.20;0.20;;;;;;;;;;5000957;28;20015;-80
2021/01/21 12:05:21;;;;;;;0.10;0.10;;;;;;;;;;5004291;28;20074;-80
2021/01/21 12:07:46;;;;;;;0.10;0.10;;;;;;;;;;4994984;28;20022;-80
2021/01/21 12:10:11;;;;;;;0.20;0.20;;;;;;;;;;4994049;28;20165;-80
2021/01/21 12:12:37;;;;;;;0.10;0.10;;;;;;;;;;5010003;28;20026;-79
2021/01/21 12:15:02;;;;;;;0.20;0.20;;;;;;;;;;5010172;28;20030;-79
2021/01/21 12:17:28;;;;;;;0.10;0.10;;;;;;;;;;5007943;28;20037;-79
2021/01/21 12:19:54;;;;;;;0.15;0.15;;;;;;;;;;5009611;28;20033;-79
2021/01/21 12:22:19;;;;;;;0.10;0.10;;;;;;;;;;4990817;28;20019;-79
2021/01/21 12:24:44;;;;;;;0.17;0.17;;;;;;;;;;5007947;28;20659;-80
2021/01/21 12:27:09;;;;;;;0.20;0.20;;;;;;;;;;5009858;28;20018;-79
2021/01/21 12:29:35;;;;;;;0.10;0.10;;;;;;;;;;5006446;28;20022;-79
2021/01/21 12:32:00;;;;;;;0.15;0.15;;;;;;;;;;5008862;28;20025;-80
2021/01/21 12:34:27;;;;;;;0.20;0.20;;;;;;;;;;5006485;28;20030;-79
2021/01/21 12:36:52;;;;;;;0.10;0.10;;;;;;;;;;5008331;28;20018;-80
2021/01/21 12:39:18;;;;;;;0.13;0.13;;;;;;;;;;5008263;28;20034;-79
2021/01/21 12:41:43;;;;;;;0.17;0.17;;;;;;;;;;4993225;28;20007;-79
2021/01/21 12:44:08;;;;;;;0.10;0.10;;;;;;;;;;4989178;28;20274;-79
2021/01/21 12:46:33;;;;;;;0.10;0.10;;;;;;;;;;4990315;28;20019;-79
2021/01/21 12:48:59;;;;;;;0.20;0.20;;;;;;;;;;5010577;28;20057;-79
2021/01/21 12:51:24;;;;;;;0.20;0.20;;;;;;;;;;5009729;28;20034;-79
2021/01/21 12:53:50;;;;;;;0.10;0.10;;;;;;;;;;5007059;28;20053;-79
2021/01/21 12:56:15;;;;;;;0.10;0.10;;;;;;;;;;5010966;28;20094;-79
2021/01/21 12:58:40;;;;;;;0.10;0.10;;;;;;;;;;5011605;28;20026;-80
2021/01/21 13:01:06;;;;;;;0.10;0.10;;;;;;;;;;5012990;28;20033;-80
2021/01/21 13:03:31;;;;;;;0.20;0.20;;;;;;;;;;5010579;28;20037;-79
2021/01/21 13:05:56;;;;;;;0.10;0.10;;;;;;;;;;4993150;28;20364;-80
2021/01/21 13:08:22;;;;;;;0.10;0.10;;;;;;;;;;4986961;28;20014;-79
2021/01/21 13:10:47;;;;;;;0.20;0.20;;;;;;;;;;5010389;28;20014;-79
2021/01/21 13:13:13;;;;;;;0.10;0.10;;;;;;;;;;5013716;28;20360;-79
2021/01/21 13:15:38;;;;;;;0.10;0.10;;;;;;;;;;4997285;28;20100;-79
2021/01/21 13:18:04;;;;;;;0.10;0.10;;;;;;;;;;5030477;28;20026;-80
2021/01/21 13:20:29;;;;;;;0.20;0.20;;;;;;;;;;5017439;28;20052;-81
2021/01/21 13:22:54;;;;;;;0.10;0.10;;;;;;;;;;5014702;28;20014;-80
2021/01/21 13:25:19;;;;;;;0.10;0.10;;;;;;;;;;5003187;28;20026;-79
2021/01/21 13:27:45;;;;;;;0.13;0.13;;;;;;;;;;4999070;28;20098;-79
2021/01/21 13:30:10;;;;;;;0.10;0.10;;;;;;;;;;4983114;28;20333;-80
2021/01/21 13:32:36;;;;;;;0.15;0.15;;;;;;;;;;4998456;28;20065;-79
2021/01/21 13:35:01;;;;;;;0.20;0.20;;;;;;;;;;5004770;28;20070;-79
2021/01/21 13:37:26;;;;;;;0.20;0.20;;;;;;;;;;5026989;28;20086;-80
2021/01/21 13:39:52;;;;;;;0.10;0.10;;;;;;;;;;5005231;28;20022;-79
2021/01/21 13:42:17;;;;;;;0.10;0.10;;;;;;;;;;5016336;28;20045;-80
2021/01/21 13:44:42;;;;;;;0.10;0.10;;;;;;;;;;5016426;28;20029;-79
2021/01/21 13:47:08;;;;;;;0.13;0.13;;;;;;;;;;4999265;28;20057;-79
2021/01/21 13:49:33;;;;;;;0.13;0.13;;;;;;;;;;5005600;28;20014;-79
2021/01/21 13:51:59;;;;;;;0.10;0.10;;;;;;;;;;5003422;28;20026;-81
2021/01/21 13:54:24;;;;;;;0.10;0.10;;;;;;;;;;5038388;28;20049;-81
2021/01/21 13:56:49;;;;;;;0.17;0.17;;;;;;;;;;5021035;28;20065;-81
2021/01/21 13:59:15;;;;;;;0.20;0.20;;;;;;;;;;5021531;28;20018;-81
2021/01/21 14:01:40;;;;;;;0.20;0.20;;;;;;;;;;5005667;28;20244;-80
2021/01/21 14:04:05;;;;;;;0.10;0.10;;;;;;;;;;4999477;28;20018;-80
2021/01/21 14:06:31;;;;;;;0.15;0.15;;;;;;;;;;5016014;28;20026;-80
2021/01/21 14:08:59;;;;;;;0.10;0.10;;;;;;;;;;5013956;28;20022;-76
2021/01/21 14:11:24;;;;;;;0.10;0.10;;;;;;;;;;5005565;28;20026;-76
2021/01/21 14:13:52;;;;;;;0.13;0.13;;;;;;;;;;4981519;28;20026;-76
2021/01/21 14:16:17;;;;;;;0.10;0.10;;;;;;;;;;4982084;28;20337;-77
2021/01/21 14:18:43;;;;;;;0.20;0.20;;;;;;;;;;5001191;28;20030;-76
2021/01/21 14:21:08;;;;;;;0.10;0.10;;;;;;;;;;5003873;28;20022;-76
2021/01/21 14:23:34;;;;;;;0.10;0.10;;;;;;;;;;4988801;28;20019;-76
2021/01/21 14:25:59;;;;;;;0.10;0.10;;;;;;;;;;5002328;28;20030;-76
2021/01/21 14:28:24;;;;;;;0.10;0.10;;;;;;;;;;5002105;28;20025;-76
2021/01/21 14:30:49;;;;;;;0.10;0.10;;;;;;;;;;5003010;28;20734;-76
2021/01/21 14:33:14;;;;;;;0.10;0.10;;;;;;;;;;4992856;28;20006;-79
2021/01/21 14:35:43;;;;;;;0.10;0.10;;;;;;;;;;5008211;28;20261;-79
2021/01/21 14:38:08;;;;;;;0.10;0.10;;;;;;;;;;4997052;28;20033;-80
2021/01/21 14:40:34;;;;;;;0.20;0.20;;;;;;;;;;5001864;28;20026;-79
2021/01/21 14:42:59;;;;;;;0.10;0.10;;;;;;;;;;5027720;28;20022;-78
2021/01/21 14:45:24;;;;;;;0.10;0.10;;;;;;;;;;5005168;28;20018;-78
2021/01/21 14:47:50;;;;;;;0.17;0.17;;;;;;;;;;4974871;28;20387;-79
2021/01/21 14:50:15;;;;;;;0.10;0.10;;;;;;;;;;5003086;28;20025;-79
2021/01/21 14:52:41;;;;;;;0.10;0.10;;;;;;;;;;5013385;28;20029;-80
2021/01/21 14:55:07;;;;;;;0.10;0.10;;;;;;;;;;5026284;28;20042;-81
2021/01/21 14:57:32;;;;;;;0.20;0.20;;;;;;;;;;5002971;28;20049;-81
2021/01/21 14:59:57;;;;;;;0.10;0.10;;;;;;;;;;5001607;28;20037;-80
2021/01/21 15:02:22;;;;;;;0.10;0.10;;;;;;;;;;5000108;28;20026;-78
2021/01/21 15:04:48;;;;;;;0.10;0.10;;;;;;;;;;4994084;28;20077;-78
2021/01/21 15:07:14;;;;;;;0.10;0.10;;;;;;;;;;5001960;28;20390;-79
2021/01/21 15:09:39;;;;;;;0.10;0.10;;;;;;;;;;5015462;28;20025;-79
2021/01/21 15:12:04;;;;;;;0.10;0.10;;;;;;;;;;4988420;28;20033;-77
2021/01/21 15:14:30;;;;;;;0.10;0.10;;;;;;;;;;5002693;28;20037;-76
2021/01/21 15:16:56;;;;;;;0.20;0.20;;;;;;;;;;4986682;28;20021;-79
2021/01/21 15:19:21;;;;;;;0.10;0.10;;;;;;;;;;5035248;28;20022;-80
2021/01/21 15:21:46;;;;;;;0.10;0.10;;;;;;;;;;5008007;28;20093;-77
2021/01/21 15:24:12;;;;;;;0.10;0.10;;;;;;;;;;5002085;28;20021;-77
2021/01/21 15:26:39;;;;;;;0.10;0.10;;;;;;;;;;5002943;28;20028;-77
2021/01/21 15:29:05;;;;;;;0.10;0.10;;;;;;;;;;5002313;28;20477;-77
2021/01/21 15:31:30;;;;;;;0.10;0.10;;;;;;;;;;5002572;28;20021;-77
2021/01/21 15:33:56;;;;;;;0.10;0.10;;;;;;;;;;5002170;28;20536;-77
2021/01/21 15:36:22;;;;;;;0.10;0.10;;;;;;;;;;5001308;28;20052;-77
2021/01/21 15:38:47;;;;;;;0.10;0.10;;;;;;;;;;5001378;28;20026;-78
2021/01/21 15:41:12;;;;;;;0.10;0.10;;;;;;;;;;4985767;28;20029;-78
2021/01/21 15:43:37;;;;;;;0.10;0.10;;;;;;;;;;5001892;28;20057;-77
2021/01/21 15:46:03;;;;;;;0.10;0.10;;;;;;;;;;5019523;28;20025;-77
2021/01/21 15:48:28;;;;;;;0.10;0.10;;;;;;;;;;4986091;28;20049;-77
2021/01/21 15:50:53;;;;;;;0.10;0.10;;;;;;;;;;5001774;28;20025;-77
2021/01/21 15:53:18;;;;;;;0.10;0.10;;;;;;;;;;4981163;28;20100;-77
2021/01/21 15:55:43;;;;;;;0.10;0.10;;;;;;;;;;4994955;28;20076;-73
2021/01/21 15:58:09;;;;;;;0.10;0.10;;;;;;;;;;4994037;28;20090;-74